RONIN53 EGVN-EGVN
Flight info
| Callsign | RONIN53 |
|---|---|
| Flight time | N/A |
| Altitude | 10000 |
| Route | OAT DTYRC DCT WISBECH DCT KINGSLYNN DCT SCULTHORPE STAY1/0040 DCT DEREHAM DCT WATTON DCT LITTLEPORT DCT CHATTERIS DTYRC BZN |
| Aircraft | A400/H-SDGHIRTUWXYZ/HB1 |
Departure
| Time | 2026-05-08 18:16 |
|---|---|
| Airport | RAF Brize Norton (EGVN) |
Arrival
| Time | N/A |
|---|---|
| Airport | RAF Brize Norton (EGVN) |
| Time | Latitude | Longitude | Altitude | Speed | Heading |
|---|---|---|---|---|---|
| 2026-05-08 18:05 | 51.75753 | -1.57025 | 273 ft | 0 kts | 109° |
| 2026-05-08 18:12 | 51.75752 | -1.57020 | 273 ft | 2 kts | 109° |
| 2026-05-08 18:13 | 51.75740 | -1.56965 | 276 ft | 8 kts | 109° |
| 2026-05-08 18:13 | 51.75701 | -1.56872 | 274 ft | 12 kts | 154° |
| 2026-05-08 18:13 | 51.75611 | -1.56828 | 277 ft | 15 kts | 163° |
| 2026-05-08 18:13 | 51.75501 | -1.56777 | 273 ft | 18 kts | 164° |
| 2026-05-08 18:14 | 51.75371 | -1.56718 | 273 ft | 20 kts | 165° |
| 2026-05-08 18:14 | 51.75233 | -1.56649 | 274 ft | 21 kts | 162° |
| 2026-05-08 18:14 | 51.75149 | -1.56524 | 274 ft | 17 kts | 90° |
| 2026-05-08 18:14 | 51.75185 | -1.56334 | 275 ft | 18 kts | 74° |
| 2026-05-08 18:15 | 51.75250 | -1.56167 | 274 ft | 18 kts | 25° |
| 2026-05-08 18:15 | 51.75352 | -1.56172 | 275 ft | 13 kts | 342° |
| 2026-05-08 18:15 | 51.75376 | -1.56242 | 275 ft | 7 kts | 257° |
| 2026-05-08 18:15 | 51.75359 | -1.56338 | 276 ft | 16 kts | 253° |
| 2026-05-08 18:16 | 51.75226 | -1.57060 | 272 ft | 123 kts | 253° |
| 2026-05-08 18:16 | 51.74958 | -1.58655 | 845 ft | 156 kts | 257° |
| 2026-05-08 18:16 | 51.74665 | -1.60395 | 1862 ft | 165 kts | 250° |
| 2026-05-08 18:16 | 51.74293 | -1.62346 | 2563 ft | 201 kts | 251° |
| 2026-05-08 18:17 | 51.73896 | -1.64748 | 3170 ft | 238 kts | 252° |
| 2026-05-08 18:17 | 51.73449 | -1.67408 | 4129 ft | 252 kts | 252° |
| 2026-05-08 18:17 | 51.73099 | -1.70227 | 5239 ft | 261 kts | 264° |
| 2026-05-08 18:17 | 51.73291 | -1.73162 | 6401 ft | 268 kts | 287° |
| 2026-05-08 18:18 | 51.74264 | -1.75738 | 7498 ft | 275 kts | 316° |
| 2026-05-08 18:18 | 51.75934 | -1.77247 | 8611 ft | 281 kts | 341° |
| 2026-05-08 18:18 | 51.77862 | -1.78001 | 9497 ft | 289 kts | 350° |
| 2026-05-08 18:18 | 51.79878 | -1.78372 | 9963 ft | 294 kts | 355° |
| 2026-05-08 18:19 | 51.81896 | -1.78550 | 10069 ft | 294 kts | 356° |
| 2026-05-08 18:19 | 51.83939 | -1.78673 | 10076 ft | 294 kts | 356° |
| 2026-05-08 18:19 | 51.86006 | -1.78817 | 10075 ft | 293 kts | 356° |
| 2026-05-08 18:19 | 51.88011 | -1.79000 | 10073 ft | 293 kts | 355° |
| 2026-05-08 18:20 | 51.90046 | -1.79230 | 10076 ft | 293 kts | 354° |
| 2026-05-08 18:20 | 51.92079 | -1.79492 | 10078 ft | 293 kts | 354° |
| 2026-05-08 18:20 | 51.94111 | -1.79774 | 10069 ft | 293 kts | 353° |
| 2026-05-08 18:20 | 51.96145 | -1.79806 | 10074 ft | 294 kts | 5° |
| 2026-05-08 18:21 | 51.98109 | -1.78854 | 10071 ft | 296 kts | 27° |
| 2026-05-08 18:21 | 51.99695 | -1.76733 | 10073 ft | 303 kts | 50° |
| 2026-05-08 18:21 | 52.00918 | -1.73862 | 10075 ft | 315 kts | 60° |
| 2026-05-08 18:21 | 52.01931 | -1.70685 | 10069 ft | 318 kts | 65° |
| 2026-05-08 18:22 | 52.02819 | -1.67396 | 10076 ft | 319 kts | 68° |
| 2026-05-08 18:22 | 52.03664 | -1.64065 | 10083 ft | 319 kts | 68° |
| 2026-05-08 18:22 | 52.04510 | -1.60731 | 10085 ft | 319 kts | 68° |
| 2026-05-08 18:22 | 52.05375 | -1.57402 | 10085 ft | 320 kts | 67° |
| 2026-05-08 18:23 | 52.06260 | -1.54086 | 10089 ft | 320 kts | 66° |
| 2026-05-08 18:23 | 52.07161 | -1.50779 | 10090 ft | 320 kts | 66° |
| 2026-05-08 18:23 | 52.08070 | -1.47488 | 10096 ft | 320 kts | 66° |
| 2026-05-08 18:23 | 52.08986 | -1.44188 | 10101 ft | 320 kts | 66° |
| 2026-05-08 18:24 | 52.09900 | -1.40898 | 10099 ft | 319 kts | 66° |
| 2026-05-08 18:24 | 52.10813 | -1.37609 | 10107 ft | 319 kts | 66° |
| 2026-05-08 18:24 | 52.11725 | -1.34316 | 10101 ft | 319 kts | 66° |
| 2026-05-08 18:24 | 52.12634 | -1.31025 | 10099 ft | 319 kts | 66° |
| 2026-05-08 18:25 | 52.13540 | -1.27733 | 10104 ft | 319 kts | 66° |
| 2026-05-08 18:25 | 52.14446 | -1.24440 | 10104 ft | 318 kts | 66° |
| 2026-05-08 18:25 | 52.15350 | -1.21145 | 10107 ft | 319 kts | 66° |
| 2026-05-08 18:25 | 52.16254 | -1.17847 | 10098 ft | 319 kts | 66° |
| 2026-05-08 18:26 | 52.17155 | -1.14553 | 10097 ft | 319 kts | 66° |
| 2026-05-08 18:26 | 52.18059 | -1.11247 | 10093 ft | 319 kts | 66° |
| 2026-05-08 18:26 | 52.18960 | -1.07946 | 10089 ft | 319 kts | 66° |
| 2026-05-08 18:26 | 52.19847 | -1.04690 | 10092 ft | 319 kts | 66° |
| 2026-05-08 18:27 | 52.20746 | -1.01385 | 10093 ft | 319 kts | 66° |
| 2026-05-08 18:27 | 52.21353 | -0.99155 | 10087 ft | 319 kts | 66° |
| 2026-05-08 18:27 | 52.22542 | -0.94770 | 10089 ft | 320 kts | 66° |
| 2026-05-08 18:27 | 52.23442 | -0.91450 | 10078 ft | 319 kts | 66° |
| 2026-05-08 18:28 | 52.24338 | -0.88139 | 10077 ft | 319 kts | 66° |
| 2026-05-08 18:28 | 52.25234 | -0.84821 | 10078 ft | 319 kts | 66° |
| 2026-05-08 18:28 | 52.26130 | -0.81502 | 10077 ft | 319 kts | 66° |
| 2026-05-08 18:28 | 52.27022 | -0.78190 | 10078 ft | 320 kts | 66° |
| 2026-05-08 18:29 | 52.27917 | -0.74865 | 10080 ft | 320 kts | 66° |
| 2026-05-08 18:29 | 52.28810 | -0.71542 | 10086 ft | 320 kts | 66° |
| 2026-05-08 18:29 | 52.29704 | -0.68208 | 10083 ft | 321 kts | 66° |
| 2026-05-08 18:29 | 52.30597 | -0.64875 | 10079 ft | 320 kts | 66° |
| 2026-05-08 18:30 | 52.31489 | -0.61538 | 10090 ft | 320 kts | 66° |
| 2026-05-08 18:30 | 52.32381 | -0.58198 | 10090 ft | 320 kts | 66° |
| 2026-05-08 18:30 | 52.33272 | -0.54859 | 10090 ft | 320 kts | 66° |
| 2026-05-08 18:30 | 52.34160 | -0.51524 | 10090 ft | 321 kts | 66° |
| 2026-05-08 18:31 | 52.35101 | -0.48222 | 10087 ft | 320 kts | 59° |
| 2026-05-08 18:31 | 52.36352 | -0.45245 | 9748 ft | 314 kts | 52° |
| 2026-05-08 18:31 | 52.37714 | -0.42454 | 9031 ft | 313 kts | 49° |
| 2026-05-08 18:31 | 52.39142 | -0.39783 | 8401 ft | 310 kts | 47° |
| 2026-05-08 18:32 | 52.40594 | -0.37187 | 7754 ft | 308 kts | 47° |
| 2026-05-08 18:32 | 52.42042 | -0.34638 | 7184 ft | 303 kts | 47° |
| 2026-05-08 18:32 | 52.43465 | -0.32132 | 6611 ft | 299 kts | 48° |
| 2026-05-08 18:32 | 52.44870 | -0.29640 | 5989 ft | 296 kts | 48° |
| 2026-05-08 18:33 | 52.46254 | -0.27163 | 5359 ft | 293 kts | 49° |
| 2026-05-08 18:33 | 52.47627 | -0.24689 | 4685 ft | 292 kts | 50° |
| 2026-05-08 18:33 | 52.48983 | -0.22231 | 4075 ft | 289 kts | 49° |
| 2026-05-08 18:33 | 52.50324 | -0.19799 | 3512 ft | 286 kts | 50° |
| 2026-05-08 18:34 | 52.51650 | -0.17384 | 3199 ft | 284 kts | 50° |
| 2026-05-08 18:34 | 52.52970 | -0.14976 | 3185 ft | 283 kts | 50° |
| 2026-05-08 18:34 | 52.54254 | -0.12636 | 3312 ft | 266 kts | 50° |
| 2026-05-08 18:34 | 52.55467 | -0.10428 | 3342 ft | 256 kts | 50° |
| 2026-05-08 18:35 | 52.56637 | -0.08291 | 3349 ft | 254 kts | 50° |
| 2026-05-08 18:35 | 52.57815 | -0.06134 | 3347 ft | 254 kts | 50° |
| 2026-05-08 18:35 | 52.58993 | -0.03977 | 3348 ft | 253 kts | 50° |
| 2026-05-08 18:35 | 52.60170 | -0.01820 | 3354 ft | 253 kts | 50° |
| 2026-05-08 18:36 | 52.61349 | 0.00342 | 3350 ft | 253 kts | 50° |
| 2026-05-08 18:36 | 52.62524 | 0.02498 | 3357 ft | 253 kts | 50° |
| 2026-05-08 18:36 | 52.63698 | 0.04654 | 3358 ft | 253 kts | 50° |
| 2026-05-08 18:36 | 52.64872 | 0.06809 | 3358 ft | 253 kts | 50° |
| 2026-05-08 18:37 | 52.66046 | 0.08966 | 3359 ft | 253 kts | 50° |
| 2026-05-08 18:37 | 52.67219 | 0.11123 | 3361 ft | 253 kts | 50° |
| 2026-05-08 18:37 | 52.68271 | 0.13425 | 3359 ft | 251 kts | 61° |
| 2026-05-08 18:37 | 52.68993 | 0.16026 | 3361 ft | 249 kts | 71° |
| 2026-05-08 18:38 | 52.69536 | 0.18729 | 3362 ft | 249 kts | 75° |
| 2026-05-08 18:38 | 52.69986 | 0.21481 | 3364 ft | 249 kts | 78° |
| 2026-05-08 18:38 | 52.70384 | 0.24253 | 3363 ft | 248 kts | 79° |
| 2026-05-08 18:38 | 52.70761 | 0.27026 | 3362 ft | 248 kts | 79° |
| 2026-05-08 18:39 | 52.71134 | 0.29803 | 3355 ft | 248 kts | 79° |
| 2026-05-08 18:39 | 52.71513 | 0.32588 | 3337 ft | 248 kts | 79° |
| 2026-05-08 18:39 | 52.71897 | 0.35357 | 3336 ft | 248 kts | 79° |
| 2026-05-08 18:39 | 52.72285 | 0.38128 | 3338 ft | 248 kts | 79° |
| 2026-05-08 18:40 | 52.72735 | 0.40875 | 3336 ft | 249 kts | 70° |
| 2026-05-08 18:40 | 52.73442 | 0.43487 | 3340 ft | 250 kts | 66° |
| 2026-05-08 18:40 | 52.74229 | 0.46043 | 3344 ft | 250 kts | 64° |
| 2026-05-08 18:40 | 52.75067 | 0.48558 | 3343 ft | 251 kts | 63° |
| 2026-05-08 18:41 | 52.75933 | 0.51059 | 3339 ft | 251 kts | 62° |
| 2026-05-08 18:41 | 52.76804 | 0.53544 | 3340 ft | 250 kts | 62° |
| 2026-05-08 18:41 | 52.77678 | 0.56042 | 3344 ft | 251 kts | 63° |
| 2026-05-08 18:41 | 52.78539 | 0.58515 | 3344 ft | 251 kts | 63° |
| 2026-05-08 18:42 | 52.79405 | 0.61020 | 3352 ft | 251 kts | 62° |
| 2026-05-08 18:42 | 52.80264 | 0.63523 | 3350 ft | 250 kts | 63° |
| 2026-05-08 18:42 | 52.81106 | 0.65983 | 3340 ft | 239 kts | 63° |
| 2026-05-08 18:42 | 52.81897 | 0.68288 | 3332 ft | 221 kts | 63° |
| 2026-05-08 18:43 | 52.82618 | 0.70390 | 3257 ft | 203 kts | 64° |
| 2026-05-08 18:43 | 52.83291 | 0.72358 | 3208 ft | 192 kts | 64° |
| 2026-05-08 18:43 | 52.83938 | 0.74264 | 3188 ft | 189 kts | 64° |
| 2026-05-08 18:43 | 52.84575 | 0.76151 | 3195 ft | 187 kts | 65° |
| 2026-05-08 18:44 | 52.85102 | 0.78115 | 3191 ft | 185 kts | 74° |
| 2026-05-08 18:44 | 52.85468 | 0.80155 | 3190 ft | 184 kts | 79° |
| 2026-05-08 18:44 | 52.85737 | 0.82233 | 3193 ft | 184 kts | 83° |
| 2026-05-08 18:44 | 52.85957 | 0.84325 | 3196 ft | 184 kts | 83° |
| 2026-05-08 18:45 | 52.86162 | 0.86423 | 3195 ft | 183 kts | 84° |
| 2026-05-08 18:45 | 52.86364 | 0.88458 | 2972 ft | 179 kts | 84° |
| 2026-05-08 18:45 | 52.86573 | 0.90502 | 2676 ft | 181 kts | 83° |
| 2026-05-08 18:45 | 52.86792 | 0.92557 | 2422 ft | 181 kts | 83° |
| 2026-05-08 18:46 | 52.87205 | 0.94524 | 2145 ft | 183 kts | 62° |
| 2026-05-08 18:46 | 52.88087 | 0.96060 | 1873 ft | 189 kts | 33° |
| 2026-05-08 18:46 | 52.89361 | 0.96587 | 1601 ft | 194 kts | 356° |
| 2026-05-08 18:46 | 52.90587 | 0.95728 | 1346 ft | 196 kts | 316° |
| 2026-05-08 18:47 | 52.91233 | 0.93814 | 1201 ft | 192 kts | 277° |
| 2026-05-08 18:47 | 52.91092 | 0.91659 | 1202 ft | 189 kts | 246° |
| 2026-05-08 18:47 | 52.90528 | 0.89708 | 1198 ft | 185 kts | 235° |
| 2026-05-08 18:47 | 52.89848 | 0.88024 | 1196 ft | 167 kts | 229° |
| 2026-05-08 18:48 | 52.89178 | 0.86587 | 1208 ft | 147 kts | 226° |
| 2026-05-08 18:48 | 52.88569 | 0.85333 | 1195 ft | 138 kts | 225° |
| 2026-05-08 18:48 | 52.87975 | 0.84109 | 1192 ft | 136 kts | 226° |
| 2026-05-08 18:48 | 52.87396 | 0.82885 | 1200 ft | 135 kts | 226° |
| 2026-05-08 18:49 | 52.86835 | 0.81664 | 1196 ft | 132 kts | 228° |
| 2026-05-08 18:49 | 52.86289 | 0.80447 | 1179 ft | 132 kts | 227° |
| 2026-05-08 18:49 | 52.85757 | 0.79242 | 1178 ft | 129 kts | 227° |
| 2026-05-08 18:49 | 52.85215 | 0.78040 | 1199 ft | 131 kts | 225° |
| 2026-05-08 18:50 | 52.84645 | 0.76852 | 1185 ft | 134 kts | 229° |
| 2026-05-08 18:50 | 52.84058 | 0.75679 | 1179 ft | 129 kts | 204° |
| 2026-05-08 18:50 | 52.83221 | 0.75537 | 1197 ft | 120 kts | 166° |
| 2026-05-08 18:50 | 52.82460 | 0.76062 | 1184 ft | 118 kts | 147° |
| 2026-05-08 18:51 | 52.81822 | 0.76967 | 1211 ft | 132 kts | 132° |
| 2026-05-08 18:51 | 52.81292 | 0.78421 | 1185 ft | 161 kts | 111° |
| 2026-05-08 18:51 | 52.81168 | 0.80315 | 1181 ft | 173 kts | 85° |
| 2026-05-08 18:51 | 52.81578 | 0.82209 | 1196 ft | 177 kts | 66° |
| 2026-05-08 18:52 | 52.82228 | 0.83962 | 1198 ft | 180 kts | 58° |
| 2026-05-08 18:52 | 52.82985 | 0.85621 | 1191 ft | 181 kts | 55° |
| 2026-05-08 18:52 | 52.83784 | 0.87243 | 1193 ft | 182 kts | 54° |
| 2026-05-08 18:52 | 52.84587 | 0.88853 | 1188 ft | 180 kts | 54° |
| 2026-05-08 18:53 | 52.85376 | 0.90468 | 1189 ft | 180 kts | 54° |
| 2026-05-08 18:53 | 52.86185 | 0.92058 | 1198 ft | 182 kts | 47° |
| 2026-05-08 18:53 | 52.86858 | 0.92889 | 1196 ft | 184 kts | 31° |
| 2026-05-08 18:53 | 52.88093 | 0.93447 | 1189 ft | 188 kts | 1° |
| 2026-05-08 18:54 | 52.89337 | 0.92798 | 1195 ft | 192 kts | 323° |
| 2026-05-08 18:54 | 52.90099 | 0.91027 | 1198 ft | 190 kts | 283° |
| 2026-05-08 18:54 | 52.90074 | 0.88897 | 1198 ft | 185 kts | 247° |
| 2026-05-08 18:54 | 52.89547 | 0.87037 | 1200 ft | 170 kts | 236° |
| 2026-05-08 18:55 | 52.88283 | 0.84198 | 1201 ft | 139 kts | 225° |
| 2026-05-08 18:55 | 52.87670 | 0.82998 | 1193 ft | 135 kts | 225° |
| 2026-05-08 18:55 | 52.87055 | 0.81822 | 1196 ft | 134 kts | 224° |
| 2026-05-08 18:56 | 52.86452 | 0.80652 | 1192 ft | 133 kts | 224° |
| 2026-05-08 18:56 | 52.85883 | 0.79440 | 1187 ft | 134 kts | 229° |
| 2026-05-08 18:56 | 52.85365 | 0.78200 | 1186 ft | 134 kts | 230° |
| 2026-05-08 18:56 | 52.84827 | 0.76932 | 1188 ft | 135 kts | 223° |
| 2026-05-08 18:57 | 52.83957 | 0.76147 | 1193 ft | 159 kts | 187° |
| 2026-05-08 18:57 | 52.82834 | 0.76231 | 1179 ft | 166 kts | 160° |
| 2026-05-08 18:57 | 52.81852 | 0.77226 | 1181 ft | 167 kts | 133° |
| 2026-05-08 18:57 | 52.81271 | 0.78885 | 1186 ft | 169 kts | 107° |
| 2026-05-08 18:58 | 52.81253 | 0.80835 | 1197 ft | 173 kts | 78° |
| 2026-05-08 18:58 | 52.81733 | 0.82689 | 1194 ft | 178 kts | 64° |
| 2026-05-08 18:58 | 52.82410 | 0.84415 | 1192 ft | 180 kts | 58° |
| 2026-05-08 18:58 | 52.83184 | 0.86065 | 1200 ft | 181 kts | 54° |
| 2026-05-08 18:59 | 52.83991 | 0.87680 | 1194 ft | 182 kts | 53° |
| 2026-05-08 18:59 | 52.84793 | 0.89287 | 1192 ft | 180 kts | 54° |
| 2026-05-08 18:59 | 52.85574 | 0.90886 | 1201 ft | 172 kts | 55° |
| 2026-05-08 18:59 | 52.86342 | 0.92295 | 1201 ft | 158 kts | 44° |
| 2026-05-08 19:00 | 52.87219 | 0.93170 | 1199 ft | 141 kts | 26° |
| 2026-05-08 19:00 | 52.88179 | 0.93452 | 1201 ft | 141 kts | 2° |
| 2026-05-08 19:00 | 52.89123 | 0.93028 | 1194 ft | 143 kts | 332° |
| 2026-05-08 19:00 | 52.89849 | 0.91907 | 1197 ft | 144 kts | 301° |
| 2026-05-08 19:01 | 52.90170 | 0.90359 | 1206 ft | 142 kts | 271° |
| 2026-05-08 19:01 | 52.90038 | 0.88786 | 1194 ft | 136 kts | 243° |
| 2026-05-08 19:01 | 52.89596 | 0.87410 | 1199 ft | 136 kts | 233° |
| 2026-05-08 19:01 | 52.89051 | 0.86139 | 1206 ft | 135 kts | 227° |
| 2026-05-08 19:02 | 52.88472 | 0.84916 | 1192 ft | 135 kts | 226° |
| 2026-05-08 19:02 | 52.87886 | 0.83706 | 1194 ft | 134 kts | 226° |
| 2026-05-08 19:02 | 52.87299 | 0.82504 | 1196 ft | 134 kts | 226° |
| 2026-05-08 19:02 | 52.86713 | 0.81309 | 1200 ft | 133 kts | 226° |
| 2026-05-08 19:03 | 52.86144 | 0.80135 | 1189 ft | 133 kts | 227° |
| 2026-05-08 19:03 | 52.85589 | 0.78908 | 1193 ft | 133 kts | 228° |
| 2026-05-08 19:03 | 52.85050 | 0.77661 | 1192 ft | 134 kts | 229° |
| 2026-05-08 19:03 | 52.84508 | 0.76404 | 1192 ft | 134 kts | 229° |
| 2026-05-08 19:04 | 52.83971 | 0.75137 | 1190 ft | 135 kts | 229° |
| 2026-05-08 19:04 | 52.83430 | 0.73872 | 1195 ft | 134 kts | 229° |
| 2026-05-08 19:04 | 52.82705 | 0.73022 | 1295 ft | 137 kts | 178° |
| 2026-05-08 19:04 | 52.81834 | 0.73840 | 1740 ft | 165 kts | 123° |
| 2026-05-08 19:05 | 52.81431 | 0.75729 | 2563 ft | 188 kts | 103° |
| 2026-05-08 19:05 | 52.81295 | 0.77957 | 3046 ft | 200 kts | 94° |
| 2026-05-08 19:05 | 52.81343 | 0.80284 | 3180 ft | 205 kts | 84° |